sensor_id;sensor_type;location;lat;lon;timestamp;P1;durP1;ratioP1;P2;durP2;ratioP2
62463;SDS011;48512;48.552;9.380;2023-03-01T00:02:04;22.35;;;11.20;;
62463;SDS011;48512;48.552;9.380;2023-03-01T00:04:30;23.45;;;10.63;;
62463;SDS011;48512;48.552;9.380;2023-03-01T00:06:55;24.15;;;11.77;;
62463;SDS011;48512;48.552;9.380;2023-03-01T00:09:21;24.08;;;11.32;;
62463;SDS011;48512;48.552;9.380;2023-03-01T00:11:47;29.45;;;12.00;;
62463;SDS011;48512;48.552;9.380;2023-03-01T00:14:13;26.58;;;11.20;;
62463;SDS011;48512;48.552;9.380;2023-03-01T00:16:41;25.67;;;11.40;;
62463;SDS011;48512;48.552;9.380;2023-03-01T00:19:08;25.00;;;11.23;;
62463;SDS011;48512;48.552;9.380;2023-03-01T00:21:40;25.88;;;10.90;;
62463;SDS011;48512;48.552;9.380;2023-03-01T00:24:06;27.95;;;11.50;;
62463;SDS011;48512;48.552;9.380;2023-03-01T00:26:32;29.02;;;12.55;;
62463;SDS011;48512;48.552;9.380;2023-03-01T00:28:58;28.55;;;11.38;;
62463;SDS011;48512;48.552;9.380;2023-03-01T00:31:25;26.00;;;12.43;;
62463;SDS011;48512;48.552;9.380;2023-03-01T00:33:55;28.02;;;12.80;;
62463;SDS011;48512;48.552;9.380;2023-03-01T00:36:23;23.02;;;10.57;;
62463;SDS011;48512;48.552;9.380;2023-03-01T00:38:53;25.80;;;11.60;;
62463;SDS011;48512;48.552;9.380;2023-03-01T00:41:19;26.80;;;11.98;;
62463;SDS011;48512;48.552;9.380;2023-03-01T00:43:45;26.05;;;11.75;;
62463;SDS011;48512;48.552;9.380;2023-03-01T00:46:15;27.52;;;13.07;;
62463;SDS011;48512;48.552;9.380;2023-03-01T00:48:42;26.10;;;12.00;;
62463;SDS011;48512;48.552;9.380;2023-03-01T00:51:19;23.45;;;12.23;;
62463;SDS011;48512;48.552;9.380;2023-03-01T00:53:46;28.65;;;12.70;;
62463;SDS011;48512;48.552;9.380;2023-03-01T00:56:13;27.35;;;11.35;;
62463;SDS011;48512;48.552;9.380;2023-03-01T00:58:39;22.20;;;10.98;;
62463;SDS011;48512;48.552;9.380;2023-03-01T01:01:12;26.15;;;11.73;;
62463;SDS011;48512;48.552;9.380;2023-03-01T01:03:43;26.63;;;11.60;;
62463;SDS011;48512;48.552;9.380;2023-03-01T01:06:21;26.42;;;12.70;;
62463;SDS011;48512;48.552;9.380;2023-03-01T01:08:46;24.77;;;12.00;;
62463;SDS011;48512;48.552;9.380;2023-03-01T01:11:12;30.73;;;13.23;;
62463;SDS011;48512;48.552;9.380;2023-03-01T01:13:39;24.23;;;11.13;;
62463;SDS011;48512;48.552;9.380;2023-03-01T01:16:05;27.85;;;12.57;;
62463;SDS011;48512;48.552;9.380;2023-03-01T01:18:31;26.45;;;12.18;;
62463;SDS011;48512;48.552;9.380;2023-03-01T01:20:56;25.00;;;11.57;;
62463;SDS011;48512;48.552;9.380;2023-03-01T01:23:22;24.30;;;11.25;;
62463;SDS011;48512;48.552;9.380;2023-03-01T01:25:47;26.15;;;12.00;;
62463;SDS011;48512;48.552;9.380;2023-03-01T01:28:13;28.73;;;12.25;;
62463;SDS011;48512;48.552;9.380;2023-03-01T01:30:38;31.05;;;12.73;;
62463;SDS011;48512;48.552;9.380;2023-03-01T01:33:03;34.65;;;13.35;;
62463;SDS011;48512;48.552;9.380;2023-03-01T01:35:29;29.92;;;12.05;;
62463;SDS011;48512;48.552;9.380;2023-03-01T01:37:54;28.23;;;12.27;;
62463;SDS011;48512;48.552;9.380;2023-03-01T01:40:20;28.98;;;12.00;;
62463;SDS011;48512;48.552;9.380;2023-03-01T01:42:45;29.13;;;12.60;;
62463;SDS011;48512;48.552;9.380;2023-03-01T01:47:55;26.40;;;13.02;;
62463;SDS011;48512;48.552;9.380;2023-03-01T01:50:25;30.52;;;12.10;;
62463;SDS011;48512;48.552;9.380;2023-03-01T01:52:51;27.05;;;12.95;;
62463;SDS011;48512;48.552;9.380;2023-03-01T01:55:19;29.88;;;12.98;;
62463;SDS011;48512;48.552;9.380;2023-03-01T01:57:49;29.13;;;12.52;;
62463;SDS011;48512;48.552;9.380;2023-03-01T02:00:19;32.15;;;13.90;;
62463;SDS011;48512;48.552;9.380;2023-03-01T02:02:50;33.65;;;13.40;;
62463;SDS011;48512;48.552;9.380;2023-03-01T02:07:57;30.98;;;13.40;;
62463;SDS011;48512;48.552;9.380;2023-03-01T02:10:23;29.05;;;13.10;;
62463;SDS011;48512;48.552;9.380;2023-03-01T02:12:50;29.55;;;12.85;;
62463;SDS011;48512;48.552;9.380;2023-03-01T02:15:16;34.13;;;14.38;;
62463;SDS011;48512;48.552;9.380;2023-03-01T02:17:42;30.92;;;13.55;;
62463;SDS011;48512;48.552;9.380;2023-03-01T02:20:27;30.55;;;13.00;;
62463;SDS011;48512;48.552;9.380;2023-03-01T02:23:05;31.63;;;13.95;;
62463;SDS011;48512;48.552;9.380;2023-03-01T02:25:37;29.88;;;13.25;;
62463;SDS011;48512;48.552;9.380;2023-03-01T02:30:41;34.75;;;13.88;;
62463;SDS011;48512;48.552;9.380;2023-03-01T02:33:28;32.88;;;14.60;;
62463;SDS011;48512;48.552;9.380;2023-03-01T02:38:26;40.08;;;14.02;;
62463;SDS011;48512;48.552;9.380;2023-03-01T02:40:53;30.83;;;14.13;;
62463;SDS011;48512;48.552;9.380;2023-03-01T02:43:19;32.03;;;14.80;;
62463;SDS011;48512;48.552;9.380;2023-03-01T02:45:48;36.38;;;15.55;;
62463;SDS011;48512;48.552;9.380;2023-03-01T02:48:15;29.70;;;14.82;;
62463;SDS011;48512;48.552;9.380;2023-03-01T02:53:48;34.53;;;14.85;;
62463;SDS011;48512;48.552;9.380;2023-03-01T02:56:36;38.42;;;16.20;;
62463;SDS011;48512;48.552;9.380;2023-03-01T02:59:02;49.50;;;19.05;;
62463;SDS011;48512;48.552;9.380;2023-03-01T03:01:29;55.70;;;19.55;;
62463;SDS011;48512;48.552;9.380;2023-03-01T03:04:04;51.05;;;19.27;;
62463;SDS011;48512;48.552;9.380;2023-03-01T03:06:35;34.63;;;15.82;;
62463;SDS011;48512;48.552;9.380;2023-03-01T03:09:01;40.47;;;17.00;;
62463;SDS011;48512;48.552;9.380;2023-03-01T03:11:27;41.00;;;16.77;;
62463;SDS011;48512;48.552;9.380;2023-03-01T03:13:52;37.08;;;16.98;;
62463;SDS011;48512;48.552;9.380;2023-03-01T03:16:18;38.50;;;17.35;;
62463;SDS011;48512;48.552;9.380;2023-03-01T03:18:44;38.63;;;15.85;;
62463;SDS011;48512;48.552;9.380;2023-03-01T03:21:11;40.78;;;17.63;;
62463;SDS011;48512;48.552;9.380;2023-03-01T03:23:37;36.60;;;15.93;;
62463;SDS011;48512;48.552;9.380;2023-03-01T03:26:03;46.30;;;16.33;;
62463;SDS011;48512;48.552;9.380;2023-03-01T03:28:33;38.35;;;16.52;;
62463;SDS011;48512;48.552;9.380;2023-03-01T03:31:00;42.35;;;16.95;;
62463;SDS011;48512;48.552;9.380;2023-03-01T03:33:31;42.72;;;18.27;;
62463;SDS011;48512;48.552;9.380;2023-03-01T03:35:57;40.67;;;18.63;;
62463;SDS011;48512;48.552;9.380;2023-03-01T03:38:23;54.40;;;21.88;;
62463;SDS011;48512;48.552;9.380;2023-03-01T03:40:50;62.17;;;25.50;;
62463;SDS011;48512;48.552;9.380;2023-03-01T03:43:18;60.80;;;23.85;;
62463;SDS011;48512;48.552;9.380;2023-03-01T03:45:45;52.90;;;22.55;;
62463;SDS011;48512;48.552;9.380;2023-03-01T03:48:12;44.83;;;18.58;;
62463;SDS011;48512;48.552;9.380;2023-03-01T03:50:38;41.83;;;17.17;;
62463;SDS011;48512;48.552;9.380;2023-03-01T03:53:05;40.30;;;17.23;;
62463;SDS011;48512;48.552;9.380;2023-03-01T03:55:32;39.13;;;16.48;;
62463;SDS011;48512;48.552;9.380;2023-03-01T03:57:59;48.45;;;19.88;;
62463;SDS011;48512;48.552;9.380;2023-03-01T04:00:31;46.30;;;17.70;;
62463;SDS011;48512;48.552;9.380;2023-03-01T04:03:00;47.28;;;18.30;;
62463;SDS011;48512;48.552;9.380;2023-03-01T04:05:26;43.92;;;17.65;;
62463;SDS011;48512;48.552;9.380;2023-03-01T04:07:52;46.33;;;18.73;;
62463;SDS011;48512;48.552;9.380;2023-03-01T04:10:26;43.63;;;16.95;;
62463;SDS011;48512;48.552;9.380;2023-03-01T04:12:53;52.05;;;18.80;;
62463;SDS011;48512;48.552;9.380;2023-03-01T04:15:21;49.90;;;19.23;;
62463;SDS011;48512;48.552;9.380;2023-03-01T04:17:49;42.83;;;18.60;;
62463;SDS011;48512;48.552;9.380;2023-03-01T04:20:16;46.25;;;19.45;;
62463;SDS011;48512;48.552;9.380;2023-03-01T04:22:49;48.90;;;18.92;;
62463;SDS011;48512;48.552;9.380;2023-03-01T04:25:15;47.13;;;19.52;;
62463;SDS011;48512;48.552;9.380;2023-03-01T04:27:40;53.55;;;21.15;;
62463;SDS011;48512;48.552;9.380;2023-03-01T04:30:06;47.92;;;20.38;;
62463;SDS011;48512;48.552;9.380;2023-03-01T04:32:32;57.60;;;21.25;;
62463;SDS011;48512;48.552;9.380;2023-03-01T04:34:58;49.75;;;21.60;;
62463;SDS011;48512;48.552;9.380;2023-03-01T04:37:24;56.00;;;21.02;;
62463;SDS011;48512;48.552;9.380;2023-03-01T04:39:50;48.55;;;19.75;;
62463;SDS011;48512;48.552;9.380;2023-03-01T04:42:15;50.03;;;18.45;;
62463;SDS011;48512;48.552;9.380;2023-03-01T04:44:42;50.00;;;19.35;;
62463;SDS011;48512;48.552;9.380;2023-03-01T04:47:11;49.80;;;20.50;;
62463;SDS011;48512;48.552;9.380;2023-03-01T04:49:37;49.33;;;19.60;;
62463;SDS011;48512;48.552;9.380;2023-03-01T04:52:03;50.05;;;20.10;;
62463;SDS011;48512;48.552;9.380;2023-03-01T04:54:29;48.88;;;20.17;;
62463;SDS011;48512;48.552;9.380;2023-03-01T04:56:58;52.75;;;21.48;;
62463;SDS011;48512;48.552;9.380;2023-03-01T04:59:24;50.55;;;19.70;;
62463;SDS011;48512;48.552;9.380;2023-03-01T05:01:53;57.33;;;20.70;;
62463;SDS011;48512;48.552;9.380;2023-03-01T05:04:22;59.10;;;23.33;;
62463;SDS011;48512;48.552;9.380;2023-03-01T05:06:48;62.85;;;22.08;;
62463;SDS011;48512;48.552;9.380;2023-03-01T05:09:14;57.55;;;21.17;;
62463;SDS011;48512;48.552;9.380;2023-03-01T05:11:39;59.38;;;22.05;;
62463;SDS011;48512;48.552;9.380;2023-03-01T05:14:05;54.65;;;22.25;;
62463;SDS011;48512;48.552;9.380;2023-03-01T05:16:32;62.67;;;21.77;;
62463;SDS011;48512;48.552;9.380;2023-03-01T05:18:58;59.88;;;22.08;;
62463;SDS011;48512;48.552;9.380;2023-03-01T05:21:24;55.75;;;21.80;;
62463;SDS011;48512;48.552;9.380;2023-03-01T05:23:50;55.22;;;21.65;;
62463;SDS011;48512;48.552;9.380;2023-03-01T05:26:17;56.95;;;21.60;;
62463;SDS011;48512;48.552;9.380;2023-03-01T05:28:44;59.65;;;22.45;;
62463;SDS011;48512;48.552;9.380;2023-03-01T05:31:09;54.42;;;21.38;;
62463;SDS011;48512;48.552;9.380;2023-03-01T05:33:35;54.25;;;21.25;;
62463;SDS011;48512;48.552;9.380;2023-03-01T05:36:02;53.90;;;21.20;;
62463;SDS011;48512;48.552;9.380;2023-03-01T05:38:28;55.80;;;21.67;;
62463;SDS011;48512;48.552;9.380;2023-03-01T05:40:53;56.65;;;20.83;;
62463;SDS011;48512;48.552;9.380;2023-03-01T05:43:19;60.92;;;23.10;;
62463;SDS011;48512;48.552;9.380;2023-03-01T05:45:44;57.83;;;21.80;;
62463;SDS011;48512;48.552;9.380;2023-03-01T05:48:10;59.63;;;21.58;;
62463;SDS011;48512;48.552;9.380;2023-03-01T05:50:37;61.88;;;23.85;;
62463;SDS011;48512;48.552;9.380;2023-03-01T05:53:26;59.67;;;22.17;;
62463;SDS011;48512;48.552;9.380;2023-03-01T05:55:51;63.35;;;22.98;;
62463;SDS011;48512;48.552;9.380;2023-03-01T05:58:17;53.90;;;21.70;;
62463;SDS011;48512;48.552;9.380;2023-03-01T06:00:45;60.70;;;22.25;;
62463;SDS011;48512;48.552;9.380;2023-03-01T06:03:13;55.13;;;20.67;;
62463;SDS011;48512;48.552;9.380;2023-03-01T06:05:40;58.78;;;22.60;;
62463;SDS011;48512;48.552;9.380;2023-03-01T06:08:06;62.47;;;22.33;;
62463;SDS011;48512;48.552;9.380;2023-03-01T06:10:31;63.78;;;23.02;;
62463;SDS011;48512;48.552;9.380;2023-03-01T06:12:57;60.08;;;21.30;;
62463;SDS011;48512;48.552;9.380;2023-03-01T06:15:23;66.70;;;22.67;;
62463;SDS011;48512;48.552;9.380;2023-03-01T06:17:50;63.40;;;23.23;;
62463;SDS011;48512;48.552;9.380;2023-03-01T06:22:41;58.38;;;21.23;;
62463;SDS011;48512;48.552;9.380;2023-03-01T06:25:07;71.82;;;24.70;;
62463;SDS011;48512;48.552;9.380;2023-03-01T06:27:33;71.63;;;24.45;;
62463;SDS011;48512;48.552;9.380;2023-03-01T06:29:58;64.15;;;24.02;;
62463;SDS011;48512;48.552;9.380;2023-03-01T06:32:24;67.05;;;23.45;;
62463;SDS011;48512;48.552;9.380;2023-03-01T06:34:49;61.40;;;22.02;;
62463;SDS011;48512;48.552;9.380;2023-03-01T06:37:15;61.50;;;21.83;;
62463;SDS011;48512;48.552;9.380;2023-03-01T06:39:41;62.45;;;23.17;;
62463;SDS011;48512;48.552;9.380;2023-03-01T06:42:07;66.82;;;23.55;;
62463;SDS011;48512;48.552;9.380;2023-03-01T06:44:34;69.50;;;24.92;;
62463;SDS011;48512;48.552;9.380;2023-03-01T06:47:00;62.60;;;23.23;;
62463;SDS011;48512;48.552;9.380;2023-03-01T06:49:26;75.53;;;25.23;;
62463;SDS011;48512;48.552;9.380;2023-03-01T06:51:51;70.38;;;25.83;;
62463;SDS011;48512;48.552;9.380;2023-03-01T06:54:16;61.22;;;23.42;;
62463;SDS011;48512;48.552;9.380;2023-03-01T06:56:42;81.45;;;26.63;;
62463;SDS011;48512;48.552;9.380;2023-03-01T06:59:11;68.80;;;24.92;;
62463;SDS011;48512;48.552;9.380;2023-03-01T07:01:36;72.30;;;24.98;;
62463;SDS011;48512;48.552;9.380;2023-03-01T07:04:02;65.35;;;24.88;;
62463;SDS011;48512;48.552;9.380;2023-03-01T07:06:27;62.83;;;23.42;;
62463;SDS011;48512;48.552;9.380;2023-03-01T07:08:52;59.17;;;23.75;;
62463;SDS011;48512;48.552;9.380;2023-03-01T07:11:18;60.25;;;21.77;;
62463;SDS011;48512;48.552;9.380;2023-03-01T07:13:43;59.13;;;23.35;;
62463;SDS011;48512;48.552;9.380;2023-03-01T07:16:09;70.47;;;23.73;;
62463;SDS011;48512;48.552;9.380;2023-03-01T07:18:34;67.57;;;25.52;;
62463;SDS011;48512;48.552;9.380;2023-03-01T07:21:03;67.65;;;24.70;;
62463;SDS011;48512;48.552;9.380;2023-03-01T07:23:30;72.70;;;26.98;;
62463;SDS011;48512;48.552;9.380;2023-03-01T07:25:56;69.53;;;25.20;;
62463;SDS011;48512;48.552;9.380;2023-03-01T07:28:25;67.25;;;25.40;;
62463;SDS011;48512;48.552;9.380;2023-03-01T07:30:50;66.75;;;23.98;;
62463;SDS011;48512;48.552;9.380;2023-03-01T07:33:16;69.22;;;23.77;;
62463;SDS011;48512;48.552;9.380;2023-03-01T07:35:41;70.38;;;25.90;;
62463;SDS011;48512;48.552;9.380;2023-03-01T07:38:07;67.63;;;24.67;;
62463;SDS011;48512;48.552;9.380;2023-03-01T07:40:32;79.78;;;26.63;;
62463;SDS011;48512;48.552;9.380;2023-03-01T07:42:58;62.92;;;23.45;;
62463;SDS011;48512;48.552;9.380;2023-03-01T07:45:25;75.82;;;26.15;;
62463;SDS011;48512;48.552;9.380;2023-03-01T07:47:51;70.70;;;26.50;;
62463;SDS011;48512;48.552;9.380;2023-03-01T07:50:17;69.63;;;25.10;;
62463;SDS011;48512;48.552;9.380;2023-03-01T07:52:44;72.78;;;25.95;;
62463;SDS011;48512;48.552;9.380;2023-03-01T07:55:10;70.53;;;25.33;;
62463;SDS011;48512;48.552;9.380;2023-03-01T07:57:35;70.38;;;25.85;;
62463;SDS011;48512;48.552;9.380;2023-03-01T08:00:01;66.18;;;24.63;;
62463;SDS011;48512;48.552;9.380;2023-03-01T08:02:26;75.13;;;27.00;;
62463;SDS011;48512;48.552;9.380;2023-03-01T08:04:52;72.55;;;24.77;;
62463;SDS011;48512;48.552;9.380;2023-03-01T08:07:17;67.38;;;24.08;;
62463;SDS011;48512;48.552;9.380;2023-03-01T08:09:42;67.45;;;24.92;;
62463;SDS011;48512;48.552;9.380;2023-03-01T08:12:08;69.72;;;24.80;;
62463;SDS011;48512;48.552;9.380;2023-03-01T08:14:33;71.97;;;25.48;;
62463;SDS011;48512;48.552;9.380;2023-03-01T08:16:59;71.57;;;27.23;;
62463;SDS011;48512;48.552;9.380;2023-03-01T08:19:24;72.75;;;25.08;;
62463;SDS011;48512;48.552;9.380;2023-03-01T08:21:50;68.13;;;24.13;;
62463;SDS011;48512;48.552;9.380;2023-03-01T08:24:15;69.15;;;24.98;;
62463;SDS011;48512;48.552;9.380;2023-03-01T08:26:40;71.00;;;25.60;;
62463;SDS011;48512;48.552;9.380;2023-03-01T08:29:06;72.85;;;25.52;;
62463;SDS011;48512;48.552;9.380;2023-03-01T08:31:36;71.05;;;25.05;;
62463;SDS011;48512;48.552;9.380;2023-03-01T08:34:07;72.88;;;26.80;;
62463;SDS011;48512;48.552;9.380;2023-03-01T08:36:36;70.65;;;24.45;;
62463;SDS011;48512;48.552;9.380;2023-03-01T08:39:03;69.85;;;25.48;;
62463;SDS011;48512;48.552;9.380;2023-03-01T08:41:29;73.97;;;25.08;;
62463;SDS011;48512;48.552;9.380;2023-03-01T08:43:55;99.68;;;31.48;;
62463;SDS011;48512;48.552;9.380;2023-03-01T08:46:34;93.60;;;31.98;;
62463;SDS011;48512;48.552;9.380;2023-03-01T08:49:04;84.70;;;30.60;;
62463;SDS011;48512;48.552;9.380;2023-03-01T08:51:32;77.35;;;28.98;;
62463;SDS011;48512;48.552;9.380;2023-03-01T08:54:01;71.97;;;27.63;;
62463;SDS011;48512;48.552;9.380;2023-03-01T08:56:28;65.05;;;24.85;;
62463;SDS011;48512;48.552;9.380;2023-03-01T08:58:53;69.18;;;25.05;;
62463;SDS011;48512;48.552;9.380;2023-03-01T09:01:19;73.38;;;25.83;;
62463;SDS011;48512;48.552;9.380;2023-03-01T09:03:45;84.22;;;28.75;;
62463;SDS011;48512;48.552;9.380;2023-03-01T09:06:11;73.18;;;28.25;;
62463;SDS011;48512;48.552;9.380;2023-03-01T09:08:41;82.78;;;29.73;;
62463;SDS011;48512;48.552;9.380;2023-03-01T09:11:08;74.88;;;26.55;;
62463;SDS011;48512;48.552;9.380;2023-03-01T09:13:35;67.00;;;25.77;;
62463;SDS011;48512;48.552;9.380;2023-03-01T09:16:02;67.13;;;25.20;;
62463;SDS011;48512;48.552;9.380;2023-03-01T09:18:29;76.32;;;28.33;;
62463;SDS011;48512;48.552;9.380;2023-03-01T09:21:01;67.63;;;26.92;;
62463;SDS011;48512;48.552;9.380;2023-03-01T09:23:34;90.40;;;30.70;;
62463;SDS011;48512;48.552;9.380;2023-03-01T09:26:03;102.68;;;31.33;;
62463;SDS011;48512;48.552;9.380;2023-03-01T09:28:30;80.88;;;30.45;;
62463;SDS011;48512;48.552;9.380;2023-03-01T09:30:59;76.22;;;29.00;;
62463;SDS011;48512;48.552;9.380;2023-03-01T09:33:26;72.40;;;26.60;;
62463;SDS011;48512;48.552;9.380;2023-03-01T09:35:56;67.18;;;25.33;;
62463;SDS011;48512;48.552;9.380;2023-03-01T09:38:29;72.32;;;26.27;;
62463;SDS011;48512;48.552;9.380;2023-03-01T09:40:55;72.78;;;26.52;;
62463;SDS011;48512;48.552;9.380;2023-03-01T09:46:04;69.60;;;25.98;;
62463;SDS011;48512;48.552;9.380;2023-03-01T09:48:40;63.13;;;24.30;;
62463;SDS011;48512;48.552;9.380;2023-03-01T09:51:12;67.05;;;25.77;;
62463;SDS011;48512;48.552;9.380;2023-03-01T09:53:42;62.35;;;23.80;;
62463;SDS011;48512;48.552;9.380;2023-03-01T09:58:53;66.53;;;25.13;;
62463;SDS011;48512;48.552;9.380;2023-03-01T10:01:34;66.78;;;24.58;;
62463;SDS011;48512;48.552;9.380;2023-03-01T10:06:59;60.95;;;23.67;;
62463;SDS011;48512;48.552;9.380;2023-03-01T10:09:33;60.70;;;22.65;;
62463;SDS011;48512;48.552;9.380;2023-03-01T10:12:00;59.65;;;22.50;;
62463;SDS011;48512;48.552;9.380;2023-03-01T10:17:03;62.15;;;23.15;;
62463;SDS011;48512;48.552;9.380;2023-03-01T10:22:04;63.55;;;24.02;;
62463;SDS011;48512;48.552;9.380;2023-03-01T10:24:38;59.58;;;22.83;;
62463;SDS011;48512;48.552;9.380;2023-03-01T10:27:05;58.47;;;22.88;;
62463;SDS011;48512;48.552;9.380;2023-03-01T10:29:43;59.55;;;23.13;;
62463;SDS011;48512;48.552;9.380;2023-03-01T10:32:22;59.30;;;23.13;;
62463;SDS011;48512;48.552;9.380;2023-03-01T10:34:47;60.80;;;23.65;;
62463;SDS011;48512;48.552;9.380;2023-03-01T10:37:14;56.78;;;21.80;;
62463;SDS011;48512;48.552;9.380;2023-03-01T10:42:38;54.17;;;22.75;;
62463;SDS011;48512;48.552;9.380;2023-03-01T10:48:12;49.60;;;21.77;;
62463;SDS011;48512;48.552;9.380;2023-03-01T10:50:45;53.10;;;22.30;;
62463;SDS011;48512;48.552;9.380;2023-03-01T10:55:46;47.58;;;21.75;;
62463;SDS011;48512;48.552;9.380;2023-03-01T10:58:17;50.22;;;22.67;;
62463;SDS011;48512;48.552;9.380;2023-03-01T11:05:54;45.75;;;20.10;;
62463;SDS011;48512;48.552;9.380;2023-03-01T11:08:32;49.65;;;21.02;;
62463;SDS011;48512;48.552;9.380;2023-03-01T11:11:04;50.38;;;21.48;;
62463;SDS011;48512;48.552;9.380;2023-03-01T11:13:30;44.83;;;19.63;;
62463;SDS011;48512;48.552;9.380;2023-03-01T11:16:00;49.17;;;20.67;;
62463;SDS011;48512;48.552;9.380;2023-03-01T11:18:28;48.58;;;21.15;;
62463;SDS011;48512;48.552;9.380;2023-03-01T11:20:55;50.67;;;23.17;;
62463;SDS011;48512;48.552;9.380;2023-03-01T11:23:23;47.35;;;22.10;;
62463;SDS011;48512;48.552;9.380;2023-03-01T11:25:52;49.17;;;21.98;;
62463;SDS011;48512;48.552;9.380;2023-03-01T11:28:23;45.22;;;21.40;;
62463;SDS011;48512;48.552;9.380;2023-03-01T11:30:53;44.47;;;20.25;;
62463;SDS011;48512;48.552;9.380;2023-03-01T11:38:38;50.03;;;23.17;;
62463;SDS011;48512;48.552;9.380;2023-03-01T11:51:45;41.15;;;18.67;;
62463;SDS011;48512;48.552;9.380;2023-03-01T11:57:18;36.95;;;18.77;;
62463;SDS011;48512;48.552;9.380;2023-03-01T12:03:29;41.38;;;19.92;;
62463;SDS011;48512;48.552;9.380;2023-03-01T12:41:11;39.20;;;20.33;;
62463;SDS011;48512;48.552;9.380;2023-03-01T12:49:18;39.88;;;18.65;;
62463;SDS011;48512;48.552;9.380;2023-03-01T12:51:55;39.38;;;19.88;;
62463;SDS011;48512;48.552;9.380;2023-03-01T12:54:28;37.20;;;18.17;;
62463;SDS011;48512;48.552;9.380;2023-03-01T12:56:57;35.97;;;19.42;;
62463;SDS011;48512;48.552;9.380;2023-03-01T13:10:02;31.85;;;17.00;;
62463;SDS011;48512;48.552;9.380;2023-03-01T13:20:17;33.35;;;17.63;;
62463;SDS011;48512;48.552;9.380;2023-03-01T13:22:44;34.00;;;17.38;;
62463;SDS011;48512;48.552;9.380;2023-03-01T13:25:12;33.10;;;18.75;;
62463;SDS011;48512;48.552;9.380;2023-03-01T13:27:38;32.42;;;17.27;;
62463;SDS011;48512;48.552;9.380;2023-03-01T13:30:03;33.40;;;18.33;;
62463;SDS011;48512;48.552;9.380;2023-03-01T13:32:34;37.10;;;19.67;;
62463;SDS011;48512;48.552;9.380;2023-03-01T13:37:40;39.95;;;20.00;;
62463;SDS011;48512;48.552;9.380;2023-03-01T13:42:42;37.70;;;20.83;;
62463;SDS011;48512;48.552;9.380;2023-03-01T13:45:53;34.20;;;18.08;;
62463;SDS011;48512;48.552;9.380;2023-03-01T13:48:18;35.40;;;18.40;;
62463;SDS011;48512;48.552;9.380;2023-03-01T13:50:54;35.28;;;19.13;;
62463;SDS011;48512;48.552;9.380;2023-03-01T13:53:26;34.90;;;18.58;;
62463;SDS011;48512;48.552;9.380;2023-03-01T13:56:06;35.70;;;18.92;;
62463;SDS011;48512;48.552;9.380;2023-03-01T13:58:44;35.03;;;18.58;;
62463;SDS011;48512;48.552;9.380;2023-03-01T14:01:20;39.22;;;19.80;;
62463;SDS011;48512;48.552;9.380;2023-03-01T14:03:48;40.10;;;19.90;;
62463;SDS011;48512;48.552;9.380;2023-03-01T14:06:23;37.22;;;19.98;;
62463;SDS011;48512;48.552;9.380;2023-03-01T14:08:51;35.85;;;18.33;;
62463;SDS011;48512;48.552;9.380;2023-03-01T14:11:33;37.05;;;20.25;;
62463;SDS011;48512;48.552;9.380;2023-03-01T14:14:22;32.70;;;18.58;;
62463;SDS011;48512;48.552;9.380;2023-03-01T14:19:48;33.85;;;18.17;;
62463;SDS011;48512;48.552;9.380;2023-03-01T14:22:24;34.40;;;19.15;;
62463;SDS011;48512;48.552;9.380;2023-03-01T14:24:59;30.15;;;17.73;;
62463;SDS011;48512;48.552;9.380;2023-03-01T14:27:26;31.45;;;17.60;;
62463;SDS011;48512;48.552;9.380;2023-03-01T14:29:56;36.80;;;19.48;;
62463;SDS011;48512;48.552;9.380;2023-03-01T14:32:28;34.20;;;18.77;;
62463;SDS011;48512;48.552;9.380;2023-03-01T14:34:56;33.53;;;18.73;;
62463;SDS011;48512;48.552;9.380;2023-03-01T14:37:30;33.88;;;18.30;;
62463;SDS011;48512;48.552;9.380;2023-03-01T14:40:00;35.67;;;17.92;;
62463;SDS011;48512;48.552;9.380;2023-03-01T14:42:31;34.65;;;19.05;;
62463;SDS011;48512;48.552;9.380;2023-03-01T14:45:00;34.67;;;19.40;;
62463;SDS011;48512;48.552;9.380;2023-03-01T14:47:28;36.67;;;18.67;;
62463;SDS011;48512;48.552;9.380;2023-03-01T14:49:59;39.00;;;19.90;;
62463;SDS011;48512;48.552;9.380;2023-03-01T14:52:55;32.55;;;17.92;;
62463;SDS011;48512;48.552;9.380;2023-03-01T14:55:44;35.72;;;19.80;;
62463;SDS011;48512;48.552;9.380;2023-03-01T14:58:14;34.90;;;18.52;;
62463;SDS011;48512;48.552;9.380;2023-03-01T15:00:47;39.10;;;20.15;;
62463;SDS011;48512;48.552;9.380;2023-03-01T15:05:59;37.72;;;19.42;;
62463;SDS011;48512;48.552;9.380;2023-03-01T15:08:27;34.30;;;18.70;;
62463;SDS011;48512;48.552;9.380;2023-03-01T15:13:49;38.38;;;19.70;;
62463;SDS011;48512;48.552;9.380;2023-03-01T15:16:19;36.08;;;19.83;;
62463;SDS011;48512;48.552;9.380;2023-03-01T15:18:47;24.90;;;13.52;;
62463;SDS011;48512;48.552;9.380;2023-03-01T15:21:16;23.85;;;12.48;;
62463;SDS011;48512;48.552;9.380;2023-03-01T15:26:40;38.37;;;19.60;;
62463;SDS011;48512;48.552;9.380;2023-03-01T15:29:18;33.60;;;18.73;;
62463;SDS011;48512;48.552;9.380;2023-03-01T15:34:24;36.45;;;19.75;;
62463;SDS011;48512;48.552;9.380;2023-03-01T15:40:24;33.10;;;17.95;;
62463;SDS011;48512;48.552;9.380;2023-03-01T15:43:04;34.17;;;18.23;;
62463;SDS011;48512;48.552;9.380;2023-03-01T15:45:31;34.38;;;17.95;;
62463;SDS011;48512;48.552;9.380;2023-03-01T15:48:04;34.03;;;19.58;;
62463;SDS011;48512;48.552;9.380;2023-03-01T15:50:39;36.58;;;20.63;;
62463;SDS011;48512;48.552;9.380;2023-03-01T15:53:07;30.30;;;17.08;;
62463;SDS011;48512;48.552;9.380;2023-03-01T15:55:36;30.73;;;16.70;;
62463;SDS011;48512;48.552;9.380;2023-03-01T15:58:15;32.15;;;17.60;;
62463;SDS011;48512;48.552;9.380;2023-03-01T16:00:46;28.30;;;15.38;;
62463;SDS011;48512;48.552;9.380;2023-03-01T16:03:13;30.27;;;16.42;;
62463;SDS011;48512;48.552;9.380;2023-03-01T16:05:46;33.63;;;17.13;;
62463;SDS011;48512;48.552;9.380;2023-03-01T16:08:12;28.27;;;15.82;;
62463;SDS011;48512;48.552;9.380;2023-03-01T16:10:37;27.85;;;15.15;;
62463;SDS011;48512;48.552;9.380;2023-03-01T16:13:03;28.92;;;16.33;;
62463;SDS011;48512;48.552;9.380;2023-03-01T16:15:30;30.80;;;16.15;;
62463;SDS011;48512;48.552;9.380;2023-03-01T16:17:57;24.02;;;13.20;;
62463;SDS011;48512;48.552;9.380;2023-03-01T16:20:25;14.33;;;9.40;;
62463;SDS011;48512;48.552;9.380;2023-03-01T16:22:52;22.20;;;12.80;;
62463;SDS011;48512;48.552;9.380;2023-03-01T16:25:18;30.80;;;16.70;;
62463;SDS011;48512;48.552;9.380;2023-03-01T16:27:46;29.23;;;16.20;;
62463;SDS011;48512;48.552;9.380;2023-03-01T16:30:13;31.23;;;16.90;;
62463;SDS011;48512;48.552;9.380;2023-03-01T16:32:40;32.10;;;16.92;;
62463;SDS011;48512;48.552;9.380;2023-03-01T16:35:08;36.20;;;18.33;;
62463;SDS011;48512;48.552;9.380;2023-03-01T16:37:36;32.88;;;17.90;;
62463;SDS011;48512;48.552;9.380;2023-03-01T16:40:02;30.10;;;16.50;;
62463;SDS011;48512;48.552;9.380;2023-03-01T16:42:32;26.73;;;15.25;;
62463;SDS011;48512;48.552;9.380;2023-03-01T16:45:01;28.38;;;15.68;;
62463;SDS011;48512;48.552;9.380;2023-03-01T16:47:27;26.73;;;14.43;;
62463;SDS011;48512;48.552;9.380;2023-03-01T16:49:53;26.60;;;15.48;;
62463;SDS011;48512;48.552;9.380;2023-03-01T16:52:19;26.25;;;15.55;;
62463;SDS011;48512;48.552;9.380;2023-03-01T16:54:45;31.63;;;15.38;;
62463;SDS011;48512;48.552;9.380;2023-03-01T16:57:11;29.00;;;15.52;;